Share

McGill, NV (89318)

MesoWest KALAMAZOO NV US SNOTEL (MSNV03) Elev 7964 ft | 39.55 °N, 114.63 °W | Change Station

Current weather conditions updated 4 days ago

Clear
Clear
37 °F
Feels Like 37 °F
N
5
Wind Variable Wind from South
Gusts 8 mph
Sunrise 6:00 AM
Sunset 7:17 PM
Moon Waning Gibbous

Tomorrow is forecast to be Much Warmer than today.

Pressure 29.95 in
Visibility 10.0 miles
Clouds Clear
Dew Point 23 °F
Humidity 57%
Rainfall -999.00 in
Snow Depth 33 in , 5 in
UV 0 out of 16
Pollen 9.70 out of 12
Air Quality Not available.
Flu Activity Sporadic
METAR KELY 170453Z AUTO 00000KT 10SM CLR 06/M04 A3004 RMK AO2 SLP140 T00561044

More Conditions Fewer Conditions

Pressure 29.95 in
Visibility 10.0 miles
Clouds Clear
Dew Point 23 °F
Humidity 57%
Rainfall -999.00 in
Snow Depth 33 in , 5 in
UV 0 out of 16
Pollen 9.70 out of 12
Air Quality Not available.
Flu Activity Sporadic
METAR KELY 170453Z AUTO 00000KT 10SM CLR 06/M04 A3004 RMK AO2 SLP140 T00561044

More Conditions Fewer Conditions

10-Day Forecast

Almanac

Astronomy

Apr. 16, 2014 Rise Set
Actual Time 6:00 AM PDT 7:17 PM PDT
Civil Twilight 5:32 AM PDT 7:45 PM PDT
Nautical Twilight 4:59 AM PDT 8:19 PM PDT
Astronomical Twilight 4:24 AM PDT 8:54 PM PDT
Moon 9:05 PM PDT (4/16) 6:51 AM PDT (4/16)
Length of Visible Light 14h 13m
Length of Day
13h 17m
Tomorrow will be 2m 27s longer.
Waning Gibbous, 96% of the Moon is Illuminated
Apr 17
Waning Gibbous
Apr 22
Last Quarter
Apr 29
New
May 6
First Quarter
May 14
Full

Yesterday's Extremes

State Highs State Lows

Community

  • symphony in blue....
    symphony in blue....
  • Dawn Surprise
    Dawn Surprise
  • Yucca delight
    Yucca delight
  • Sunset inside of the Ocean
    Sunset inside of the Ocean
  • Lunar eclipse 15 April 2014
    Lunar eclipse 15 April 2014

WunderPhotos

Upload Photos

1,701,868 photos uploaded!

WunderBlogs® & News

Nearby

Snow Depth

Station Depth Elevation
Berry Creek 33 in 9100 ft
Ward Mountain 5 in 9200 ft
Diamond Peak 1 in 8000 ft
Corral Canyon 48 in 8500 ft
Green Mountain 24 in 8000 ft

Coastal Water Temperatures

Place Temperature
No Stations Reporting

Earthquake Activity

City Distance Mag. Time & Date
No recent earthquake activity has been reported nearby.
Minimum magnitude displayed is 2.5.

Nearby Weather Stations

Station Location Temp. Windchill Dew Point Humidity Wind Precip. Elev Updated Type
MesoWest Ely , Ely, NV 48 °F 46 °F 25 °F 40% WNW  at  5 mph 0.00 in / hr 6250 ft 8:00 PM PDT MADIS
RAWS H-T PORTABLE #3 NV, McGill, NV 35 °F 35 °F 23 °F 61% ENE  at  3 mph 0.00 in / hr 8625 ft 9:12 PM PDT MADIS

Show More Stations Show Fewer Stations

What do you think?

We're not finished. Please let us know what you like, what you don't like, and what you are still missing.